createdAt,value
2022-08-08T00:02:32.850Z,0.88
2022-08-08T00:05:09.413Z,1.17
2022-08-08T00:07:40.791Z,0.90
2022-08-08T00:10:14.730Z,1.00
2022-08-08T00:13:00.975Z,1.10
2022-08-08T00:15:57.589Z,0.73
2022-08-08T00:18:29.381Z,0.80
2022-08-08T00:21:00.916Z,0.80
2022-08-08T00:23:47.835Z,0.80
2022-08-08T00:26:29.230Z,1.10
2022-08-08T00:29:02.133Z,0.80
2022-08-08T00:32:20.945Z,1.00
2022-08-08T00:34:50.100Z,1.00
2022-08-08T00:37:46.947Z,0.98
2022-08-08T00:41:11.274Z,1.20
2022-08-08T00:43:23.781Z,0.88
2022-08-08T00:45:54.018Z,1.00
2022-08-08T00:48:55.146Z,0.90
2022-08-08T00:51:42.346Z,0.80
2022-08-08T00:54:28.869Z,0.90
2022-08-08T00:57:05.030Z,1.10
2022-08-08T00:59:50.851Z,0.95
2022-08-08T01:03:16.042Z,1.15
2022-08-08T01:05:41.839Z,1.10
2022-08-08T01:08:07.608Z,1.00
2022-08-08T01:10:38.514Z,1.15
2022-08-08T01:13:37.931Z,0.80
2022-08-08T01:16:46.226Z,1.05
2022-08-08T01:20:01.746Z,0.90
2022-08-08T01:22:38.666Z,0.90
2022-08-08T01:25:26.395Z,1.02
2022-08-08T01:28:14.930Z,1.10
2022-08-08T01:30:54.571Z,1.10
2022-08-08T01:33:54.292Z,1.10
2022-08-08T01:36:23.528Z,1.30
2022-08-08T01:38:56.569Z,1.02
2022-08-08T01:41:38.083Z,1.10
2022-08-08T01:44:26.339Z,1.30
2022-08-08T01:46:53.968Z,1.05
2022-08-08T01:49:37.164Z,1.15
2022-08-08T01:53:04.226Z,1.10
2022-08-08T01:55:26.699Z,1.38
2022-08-08T01:58:12.621Z,0.90
2022-08-08T02:00:50.887Z,0.98
2022-08-08T02:03:57.570Z,1.30
2022-08-08T02:06:44.088Z,1.10
2022-08-08T02:10:02.021Z,1.70
2022-08-08T02:12:33.007Z,0.90
2022-08-08T02:15:04.975Z,1.40
2022-08-08T02:17:59.045Z,1.20
2022-08-08T02:21:08.626Z,1.20
2022-08-08T02:23:46.839Z,1.20
2022-08-08T02:26:29.508Z,1.30
2022-08-08T02:29:14.801Z,1.27
2022-08-08T02:32:00.600Z,1.10
2022-08-08T02:35:07.888Z,1.40
2022-08-08T02:37:52.875Z,1.65
2022-08-08T02:40:42.307Z,1.45
2022-08-08T02:44:35.575Z,1.30
2022-08-08T02:46:16.018Z,2.28
2022-08-08T02:49:03.145Z,1.52
2022-08-08T02:51:56.655Z,1.23
2022-08-08T02:54:45.555Z,1.48
2022-08-08T02:57:21.461Z,1.50
2022-08-08T03:00:26.580Z,1.38
2022-08-08T03:03:03.132Z,1.50
2022-08-08T03:05:45.435Z,1.55
2022-08-08T03:08:28.970Z,1.75
2022-08-08T03:11:48.113Z,1.55
2022-08-08T03:16:00.781Z,1.25
2022-08-08T03:17:20.062Z,1.25
2022-08-08T03:20:03.577Z,1.70
2022-08-08T03:22:38.942Z,1.60
2022-08-08T03:25:14.626Z,1.88
2022-08-08T03:27:56.201Z,1.65
2022-08-08T03:30:24.907Z,1.90
2022-08-08T03:33:55.109Z,1.73
2022-08-08T03:36:19.482Z,1.77
2022-08-08T03:38:57.738Z,1.95
2022-08-08T03:42:12.335Z,1.60
2022-08-08T03:44:20.516Z,1.88
2022-08-08T03:46:52.934Z,1.95
2022-08-08T03:49:57.633Z,2.08
2022-08-08T03:52:14.077Z,2.22
2022-08-08T03:55:02.145Z,1.90
2022-08-08T03:58:31.182Z,1.83
2022-08-08T04:00:19.370Z,2.40
2022-08-08T04:03:01.843Z,2.08
2022-08-08T04:05:35.286Z,2.15
2022-08-08T04:08:03.282Z,2.08
2022-08-08T04:10:32.216Z,1.88
2022-08-08T04:13:00.213Z,1.95
2022-08-08T04:15:30.443Z,1.90
2022-08-08T04:18:05.852Z,1.98
2022-08-08T04:20:33.378Z,2.10
2022-08-08T04:23:03.607Z,1.90
2022-08-08T04:25:38.382Z,2.40
2022-08-08T04:28:35.224Z,1.90
2022-08-08T04:30:55.282Z,1.90
2022-08-08T04:33:24.759Z,1.87
2022-08-08T04:35:54.340Z,1.90
2022-08-08T04:38:23.505Z,1.88
2022-08-08T04:40:54.143Z,2.10
2022-08-08T04:43:31.384Z,1.90
2022-08-08T04:45:59.754Z,2.08
2022-08-08T04:48:26.898Z,1.95
2022-08-08T04:50:54.007Z,2.30
2022-08-08T04:54:36.582Z,2.97
2022-08-08T04:56:08.298Z,2.50
2022-08-08T04:58:35.542Z,2.58
2022-08-08T05:01:05.786Z,2.88
2022-08-08T05:04:08.406Z,2.55
2022-08-08T05:06:27.874Z,2.25
2022-08-08T05:09:02.390Z,2.97
2022-08-08T05:11:38.790Z,2.15
2022-08-08T05:14:07.583Z,2.58
2022-08-08T05:16:51.482Z,2.08
2022-08-08T05:20:11.161Z,2.17
2022-08-08T05:22:10.414Z,2.45
2022-08-08T05:24:38.449Z,2.22
2022-08-08T05:27:06.201Z,1.90
2022-08-08T05:29:35.941Z,2.25
2022-08-08T05:32:06.553Z,2.38
2022-08-08T05:34:36.402Z,2.20
2022-08-08T05:37:16.233Z,2.50
2022-08-08T05:39:56.989Z,2.40
2022-08-08T05:42:33.524Z,2.47
2022-08-08T05:45:24.750Z,2.33
2022-08-08T05:47:59.927Z,2.33
2022-08-08T05:50:30.257Z,2.45
2022-08-08T05:53:23.140Z,2.42
2022-08-08T05:56:10.423Z,2.42
2022-08-08T05:58:39.530Z,2.17
2022-08-08T06:01:56.631Z,2.22
2022-08-08T06:04:13.785Z,2.60
2022-08-08T06:06:48.145Z,2.30
2022-08-08T06:10:00.267Z,2.30
2022-08-08T06:12:06.331Z,2.13
2022-08-08T06:14:33.435Z,2.38
2022-08-08T06:17:02.560Z,1.90
2022-08-08T06:19:33.355Z,2.20
2022-08-08T06:22:32.200Z,2.20
2022-08-08T06:24:51.156Z,2.63
2022-08-08T06:27:24.570Z,2.60
2022-08-08T06:30:05.574Z,2.40
2022-08-08T06:32:42.031Z,2.70
2022-08-08T06:36:07.095Z,2.70
2022-08-08T06:38:05.275Z,2.95
2022-08-08T06:40:48.649Z,2.58
2022-08-08T06:43:21.279Z,2.47
2022-08-08T06:46:02.023Z,2.33
2022-08-08T06:48:29.828Z,2.22
2022-08-08T06:50:58.289Z,2.03
2022-08-08T06:53:39.765Z,2.00
2022-08-08T06:56:16.791Z,1.92
2022-08-08T06:58:43.987Z,1.98
2022-08-08T07:01:52.150Z,2.13
2022-08-08T07:04:37.098Z,2.05
2022-08-08T07:06:57.515Z,2.13
2022-08-08T07:09:59.369Z,1.88
2022-08-08T07:12:47.719Z,1.90
2022-08-08T07:15:32.188Z,2.10
2022-08-08T07:18:35.621Z,2.03
2022-08-08T07:21:02.256Z,1.67
2022-08-08T07:24:01.597Z,1.75
2022-08-08T07:26:37.805Z,1.75
2022-08-08T07:29:11.319Z,1.77
2022-08-08T07:31:39.019Z,2.00
2022-08-08T07:34:08.667Z,1.90
2022-08-08T07:36:41.076Z,1.85
2022-08-08T07:39:16.148Z,2.00
2022-08-08T07:41:59.179Z,1.98
2022-08-08T07:44:40.199Z,2.05
2022-08-08T07:47:08.133Z,1.90
2022-08-08T07:49:35.431Z,2.17
2022-08-08T07:52:08.608Z,1.77
2022-08-08T07:54:52.731Z,2.15
2022-08-08T07:57:21.153Z,1.92
2022-08-08T07:59:48.499Z,2.08
2022-08-08T08:02:35.726Z,1.90
2022-08-08T08:05:06.974Z,2.10
2022-08-08T08:07:45.984Z,2.00
2022-08-08T08:10:30.226Z,2.20
2022-08-08T08:13:20.549Z,1.92
2022-08-08T08:16:03.147Z,1.67
2022-08-08T08:18:52.058Z,1.70
2022-08-08T08:21:35.542Z,1.50
2022-08-08T08:24:13.795Z,1.70
2022-08-08T08:26:52.537Z,1.60
2022-08-08T08:29:21.891Z,1.33
2022-08-08T08:31:54.110Z,1.75
2022-08-08T08:34:32.222Z,1.50
2022-08-08T08:37:07.438Z,1.73
2022-08-08T08:40:00.591Z,1.70
2022-08-08T08:42:32.015Z,1.40
2022-08-08T08:45:21.097Z,1.50
2022-08-08T08:47:53.596Z,1.60
2022-08-08T08:50:33.520Z,1.45
2022-08-08T08:53:54.382Z,1.52
2022-08-08T08:55:54.743Z,1.30
2022-08-08T08:58:46.876Z,1.35
2022-08-08T09:01:18.611Z,1.48
2022-08-08T09:03:50.450Z,1.45
2022-08-08T09:06:28.507Z,1.40
2022-08-08T09:09:18.834Z,1.25
2022-08-08T09:12:02.399Z,1.15
2022-08-08T09:14:35.269Z,1.30
2022-08-08T09:17:11.739Z,1.17
2022-08-08T09:21:58.978Z,1.25
2022-08-08T09:22:29.340Z,1.40
2022-08-08T09:24:56.955Z,1.23
2022-08-08T09:27:56.844Z,1.30
2022-08-08T09:30:17.219Z,1.50
2022-08-08T09:33:12.424Z,1.25
2022-08-08T09:35:37.410Z,1.20
2022-08-08T09:38:05.823Z,1.33
2022-08-08T09:40:47.816Z,1.50
2022-08-08T09:44:05.362Z,1.35
2022-08-08T09:46:30.731Z,1.38
2022-08-08T09:49:04.312Z,1.55
2022-08-08T09:52:06.938Z,1.23
2022-08-08T09:54:44.013Z,1.17
2022-08-08T09:57:17.061Z,1.33
2022-08-08T10:00:01.729Z,1.20
2022-08-08T10:02:40.235Z,1.35
2022-08-08T10:05:15.062Z,1.30
2022-08-08T10:07:51.574Z,1.30
2022-08-08T10:10:32.631Z,1.30
2022-08-08T10:13:19.227Z,1.40
2022-08-08T10:15:59.381Z,1.30
2022-08-08T10:18:36.040Z,1.33
2022-08-08T10:21:22.867Z,1.50
2022-08-08T10:23:58.607Z,1.20
2022-08-08T10:26:40.603Z,1.17
2022-08-08T10:29:20.860Z,1.20
2022-08-08T10:32:07.207Z,1.20
2022-08-08T10:34:38.572Z,1.20
2022-08-08T10:37:07.650Z,1.20
2022-08-08T10:39:54.441Z,1.20
2022-08-08T10:42:27.132Z,1.10
2022-08-08T10:45:00.568Z,1.35
2022-08-08T10:47:30.637Z,1.13
2022-08-08T10:50:15.738Z,1.10
2022-08-08T10:52:43.237Z,1.13
2022-08-08T10:55:13.523Z,1.10
2022-08-08T10:57:49.682Z,0.90
2022-08-08T11:00:25.467Z,1.38
2022-08-08T11:02:53.581Z,1.13
2022-08-08T11:05:23.174Z,1.17
2022-08-08T11:08:37.733Z,1.10
2022-08-08T11:10:44.678Z,1.20
2022-08-08T11:13:28.978Z,1.23
2022-08-08T11:16:00.951Z,1.02
2022-08-08T11:18:30.381Z,1.30
2022-08-08T11:20:59.847Z,1.20
2022-08-08T11:23:32.899Z,1.20
2022-08-08T11:26:02.042Z,1.02
2022-08-08T11:28:31.782Z,1.10
2022-08-08T11:31:00.366Z,1.20
2022-08-08T11:33:51.249Z,0.98
2022-08-08T11:36:15.932Z,1.55
2022-08-08T11:38:55.259Z,0.98
2022-08-08T11:41:24.411Z,1.10
2022-08-08T11:43:52.093Z,0.90
2022-08-08T11:46:22.260Z,1.30
2022-08-08T11:48:52.074Z,1.00
2022-08-08T11:51:39.137Z,0.98
2022-08-08T11:54:13.723Z,1.20
2022-08-08T11:56:56.003Z,0.90
2022-08-08T11:59:57.845Z,1.17
2022-08-08T12:02:31.821Z,1.30
2022-08-08T12:05:03.758Z,1.00
2022-08-08T12:07:31.993Z,1.17
2022-08-08T12:10:11.074Z,1.10
2022-08-08T12:12:41.843Z,1.15
2022-08-08T12:15:13.851Z,1.02
2022-08-08T12:17:50.850Z,1.00
2022-08-08T12:20:18.556Z,1.13
2022-08-08T12:22:51.102Z,1.20
2022-08-08T12:25:24.656Z,1.10
2022-08-08T12:28:12.936Z,1.17
2022-08-08T12:30:48.049Z,1.40
2022-08-08T12:33:21.486Z,0.82
2022-08-08T12:35:52.445Z,1.00
2022-08-08T12:38:20.494Z,1.00
2022-08-08T12:41:04.405Z,1.10
2022-08-08T12:43:47.863Z,0.88
2022-08-08T12:46:26.653Z,1.05
2022-08-08T12:51:59.220Z,1.00
2022-08-08T12:54:38.296Z,1.05
2022-08-08T12:57:17.200Z,1.25
2022-08-08T13:00:05.392Z,1.00
2022-08-08T13:02:36.076Z,1.02
2022-08-08T13:05:25.663Z,0.90
2022-08-08T13:08:03.874Z,0.95
2022-08-08T13:10:32.802Z,1.00
2022-08-08T13:13:05.866Z,0.90
2022-08-08T13:15:34.918Z,0.88
2022-08-08T13:18:10.974Z,1.10
2022-08-08T13:20:49.703Z,0.98
2022-08-08T13:23:30.730Z,0.90
2022-08-08T13:26:04.314Z,0.70
2022-08-08T13:28:42.286Z,0.70
2022-08-08T13:31:12.728Z,0.90
2022-08-08T13:33:47.278Z,0.88
2022-08-08T13:36:17.172Z,0.77
2022-08-08T13:38:45.343Z,1.00
2022-08-08T13:41:16.810Z,1.10
2022-08-08T13:43:50.687Z,0.93
2022-08-08T13:46:27.353Z,1.00
2022-08-08T13:49:11.555Z,0.95
2022-08-08T13:52:10.303Z,0.82
2022-08-08T13:54:40.744Z,0.80
2022-08-08T13:57:12.837Z,0.88
2022-08-08T13:59:40.342Z,0.93
2022-08-08T14:02:20.323Z,0.90
2022-08-08T14:04:54.456Z,0.90
2022-08-08T14:07:25.622Z,1.10
2022-08-08T14:10:11.811Z,0.93
2022-08-08T14:12:46.607Z,0.90
2022-08-08T14:15:31.173Z,0.90
2022-08-08T14:18:35.126Z,1.00
2022-08-08T14:21:01.575Z,1.02
2022-08-08T14:24:06.985Z,1.00
2022-08-08T14:26:28.329Z,1.00
2022-08-08T14:28:57.184Z,0.98
2022-08-08T14:32:07.118Z,1.02
2022-08-08T14:34:22.801Z,1.15
2022-08-08T14:36:53.747Z,1.00
2022-08-08T14:39:24.873Z,1.10
2022-08-08T14:41:59.467Z,1.23
2022-08-08T14:44:35.330Z,1.00
2022-08-08T14:47:16.677Z,0.70
2022-08-08T14:50:02.467Z,0.77
2022-08-08T14:52:46.404Z,0.90
2022-08-08T14:55:13.821Z,1.40
2022-08-08T14:58:02.829Z,0.80
2022-08-08T15:00:31.784Z,0.80
2022-08-08T15:03:15.119Z,0.90
2022-08-08T15:05:54.095Z,0.90
2022-08-08T15:08:35.340Z,0.85
2022-08-08T15:11:06.906Z,1.25
2022-08-08T15:13:39.625Z,1.00
2022-08-08T15:16:11.973Z,0.80
2022-08-08T15:18:44.098Z,0.77
2022-08-08T15:21:19.082Z,0.73
2022-08-08T15:23:50.523Z,0.90
2022-08-08T15:26:19.211Z,0.65
2022-08-08T15:28:53.044Z,0.75
2022-08-08T15:32:02.792Z,0.60
2022-08-08T15:34:29.147Z,0.80
2022-08-08T15:36:56.442Z,0.60
2022-08-08T15:39:23.632Z,1.10
2022-08-08T15:41:53.030Z,0.93
2022-08-08T15:44:21.178Z,0.80
2022-08-08T15:46:50.911Z,1.55
2022-08-08T15:49:20.351Z,1.25
2022-08-08T15:51:50.016Z,0.65
2022-08-08T15:54:18.380Z,0.88
2022-08-08T15:56:46.455Z,0.75
2022-08-08T15:59:14.058Z,0.70
2022-08-08T16:01:59.627Z,0.80
2022-08-08T16:04:29.835Z,0.80
2022-08-08T16:06:57.378Z,1.05
2022-08-08T16:13:04.198Z,1.00
2022-08-08T16:13:14.781Z,0.77
2022-08-08T16:14:58.882Z,0.90
2022-08-08T16:17:38.922Z,0.90
2022-08-08T16:20:13.668Z,0.82
2022-08-08T16:22:41.786Z,0.77
2022-08-08T16:25:09.517Z,1.00
2022-08-08T16:27:37.084Z,0.80
2022-08-08T16:30:13.562Z,0.75
2022-08-08T16:32:41.894Z,0.82
2022-08-08T16:35:09.691Z,0.70
2022-08-08T16:37:40.363Z,0.70
2022-08-08T16:40:12.305Z,1.00
2022-08-08T16:42:40.451Z,1.27
2022-08-08T16:45:11.358Z,0.68
2022-08-08T16:47:55.887Z,0.85
2022-08-08T16:50:23.998Z,0.90
2022-08-08T16:55:05.496Z,0.60
2022-08-08T16:55:53.772Z,0.90
2022-08-08T16:58:25.692Z,0.93
2022-08-08T17:00:53.793Z,0.73
2022-08-08T17:03:24.306Z,0.90
2022-08-08T17:05:53.811Z,0.93
2022-08-08T17:08:23.655Z,0.95
2022-08-08T17:10:57.469Z,0.90
2022-08-08T17:13:27.658Z,1.20
2022-08-08T17:16:15.248Z,0.85
2022-08-08T17:18:42.813Z,0.85
2022-08-08T17:21:12.622Z,0.73
2022-08-08T17:24:01.631Z,0.90
2022-08-08T17:26:29.334Z,0.90
2022-08-08T17:28:56.982Z,0.77
2022-08-08T17:31:45.378Z,0.85
2022-08-08T17:34:48.987Z,1.05
2022-08-08T17:37:03.955Z,1.55
2022-08-08T17:40:04.787Z,1.92
2022-08-08T17:42:21.652Z,1.50
2022-08-08T17:44:52.511Z,1.00
2022-08-08T17:47:23.956Z,1.20
2022-08-08T17:50:01.450Z,1.00
2022-08-08T17:52:35.183Z,1.00
2022-08-08T17:57:35.330Z,0.80
2022-08-08T18:00:03.381Z,0.90
2022-08-08T18:02:30.635Z,1.08
2022-08-08T18:04:58.779Z,0.80
2022-08-08T18:08:15.473Z,0.82
2022-08-08T18:10:15.318Z,0.80
2022-08-08T18:12:45.867Z,1.00
2022-08-08T18:15:14.256Z,0.85
2022-08-08T18:18:27.759Z,2.20
2022-08-08T18:20:37.149Z,1.67
2022-08-08T18:23:16.155Z,1.15
2022-08-08T18:25:44.079Z,1.27
2022-08-08T18:28:13.550Z,1.42
2022-08-08T18:30:42.606Z,1.40
2022-08-08T18:33:36.227Z,1.20
2022-08-08T18:36:02.761Z,1.45
2022-08-08T18:38:30.606Z,1.20
2022-08-08T18:40:57.854Z,1.23
2022-08-08T18:43:42.484Z,0.95
2022-08-08T18:46:55.593Z,1.00
2022-08-08T18:48:57.262Z,1.23
2022-08-08T18:51:53.463Z,0.70
2022-08-08T18:54:22.723Z,1.10
2022-08-08T18:56:57.234Z,0.88
2022-08-08T18:59:24.626Z,1.20
2022-08-08T19:02:25.311Z,1.00
2022-08-08T19:04:50.862Z,1.45
2022-08-08T19:07:22.817Z,1.05
2022-08-08T19:10:14.263Z,1.27
2022-08-08T19:12:38.454Z,1.00
2022-08-08T19:15:11.944Z,1.00
2022-08-08T19:17:48.046Z,1.25
2022-08-08T19:20:29.977Z,1.00
2022-08-08T19:22:59.337Z,0.88
2022-08-08T19:26:20.529Z,1.20
2022-08-08T19:28:18.035Z,1.13
2022-08-08T19:31:03.578Z,1.30
2022-08-08T19:33:52.379Z,1.65
2022-08-08T19:36:27.374Z,1.15
2022-08-08T19:38:56.004Z,1.45
2022-08-08T19:41:27.180Z,1.40
2022-08-08T19:44:04.110Z,1.50
2022-08-08T19:46:40.636Z,1.50
2022-08-08T19:49:09.777Z,1.33
2022-08-08T19:51:41.421Z,1.55
2022-08-08T19:54:11.093Z,1.52
2022-08-08T19:56:39.857Z,1.40
2022-08-08T19:59:12.385Z,1.67
2022-08-08T20:02:01.784Z,1.65
2022-08-08T20:04:27.890Z,1.58
2022-08-08T20:06:57.659Z,1.50
2022-08-08T20:09:25.313Z,1.50
2022-08-08T20:11:57.298Z,1.70
2022-08-08T20:14:33.870Z,1.58
2022-08-08T20:17:03.012Z,1.50
2022-08-08T20:19:34.651Z,1.65
2022-08-08T20:22:20.555Z,1.52
2022-08-08T20:24:53.592Z,1.50
2022-08-08T20:27:21.293Z,1.45
2022-08-08T20:29:55.920Z,2.05
2022-08-08T20:32:28.306Z,1.50
2022-08-08T20:35:01.503Z,1.73
2022-08-08T20:37:47.119Z,1.67
2022-08-08T20:40:17.263Z,1.55
2022-08-08T20:42:54.872Z,1.60
2022-08-08T20:45:54.740Z,1.70
2022-08-08T20:48:09.889Z,1.55
2022-08-08T20:50:37.842Z,1.42
2022-08-08T20:53:06.849Z,1.13
2022-08-08T20:55:43.298Z,1.40
2022-08-08T20:58:23.090Z,1.13
2022-08-08T21:00:50.666Z,1.20
2022-08-08T21:03:17.843Z,1.20
2022-08-08T21:05:49.183Z,0.93
2022-08-08T21:08:36.080Z,1.23
2022-08-08T21:11:13.559Z,1.10
2022-08-08T21:13:42.766Z,1.27
2022-08-08T21:16:20.390Z,1.00
2022-08-08T21:18:57.189Z,1.10
2022-08-08T21:21:41.097Z,1.00
2022-08-08T21:24:18.130Z,1.20
2022-08-08T21:26:51.046Z,1.30
2022-08-08T21:29:20.033Z,1.35
2022-08-08T21:31:53.020Z,1.20
2022-08-08T21:34:25.638Z,1.10
2022-08-08T21:36:58.452Z,1.20
2022-08-08T21:39:41.623Z,1.10
2022-08-08T21:42:13.239Z,1.38
2022-08-08T21:44:58.409Z,0.90
2022-08-08T21:48:06.843Z,1.17
2022-08-08T21:50:13.617Z,1.20
2022-08-08T21:54:33.840Z,1.00
2022-08-08T21:56:24.492Z,1.27
2022-08-08T21:58:17.520Z,0.70
2022-08-08T22:00:44.686Z,1.08
2022-08-08T22:03:17.530Z,1.50
2022-08-08T22:05:45.556Z,1.25
2022-08-08T22:08:15.726Z,1.30
2022-08-08T22:10:51.409Z,1.02
2022-08-08T22:13:21.781Z,1.10
2022-08-08T22:15:59.066Z,1.10
2022-08-08T22:18:28.854Z,1.13
2022-08-08T22:20:57.638Z,1.10
2022-08-08T22:23:29.963Z,1.27
2022-08-08T22:26:27.613Z,1.52
2022-08-08T22:29:04.170Z,1.48
2022-08-08T22:31:35.591Z,1.10
2022-08-08T22:34:12.606Z,1.10
2022-08-08T22:36:42.621Z,0.98
2022-08-08T22:39:11.871Z,1.20
2022-08-08T22:41:46.395Z,1.20
2022-08-08T22:44:16.486Z,1.10
2022-08-08T22:46:44.987Z,1.30
2022-08-08T22:49:19.860Z,1.35
2022-08-08T22:51:47.503Z,1.00
2022-08-08T22:54:32.898Z,1.10
2022-08-08T22:57:11.359Z,1.00
2022-08-08T22:59:48.389Z,1.23
2022-08-08T23:02:28.506Z,1.15
2022-08-08T23:05:04.894Z,1.40
2022-08-08T23:07:51.235Z,1.10
2022-08-08T23:10:21.410Z,1.27
2022-08-08T23:12:52.394Z,1.17
2022-08-08T23:16:38.330Z,1.33
2022-08-08T23:18:08.623Z,1.48
2022-08-08T23:20:39.353Z,1.00
2022-08-08T23:23:06.504Z,1.35
2022-08-08T23:25:37.275Z,1.20
2022-08-08T23:28:12.402Z,1.20
2022-08-08T23:30:39.531Z,1.27
2022-08-08T23:33:18.988Z,1.20
2022-08-08T23:36:06.460Z,1.13
2022-08-08T23:38:35.914Z,1.25
2022-08-08T23:41:12.082Z,1.40
2022-08-08T23:43:45.658Z,1.02
2022-08-08T23:49:05.069Z,1.20
2022-08-08T23:49:14.945Z,1.17
2022-08-08T23:52:06.750Z,1.38
2022-08-08T23:54:41.924Z,1.13
2022-08-08T23:57:26.519Z,1.27
2022-08-08T23:59:55.613Z,1.23
